sensor_id;sensor_type;location;lat;lon;timestamp;temperature;humidity
6988;DHT22;3534;49.960;8.018;2024-03-06T00:02:01;10.00;99.90
6988;DHT22;3534;49.960;8.018;2024-03-06T00:04:28;10.00;99.90
6988;DHT22;3534;49.960;8.018;2024-03-06T00:06:55;10.00;99.90
6988;DHT22;3534;49.960;8.018;2024-03-06T00:09:23;9.90;99.90
6988;DHT22;3534;49.960;8.018;2024-03-06T00:11:53;9.90;99.90
6988;DHT22;3534;49.960;8.018;2024-03-06T00:14:21;9.80;99.90
6988;DHT22;3534;49.960;8.018;2024-03-06T00:16:48;9.80;99.90
6988;DHT22;3534;49.960;8.018;2024-03-06T00:19:15;9.70;99.90
6988;DHT22;3534;49.960;8.018;2024-03-06T00:21:42;9.70;99.90
6988;DHT22;3534;49.960;8.018;2024-03-06T00:24:09;9.60;99.90
6988;DHT22;3534;49.960;8.018;2024-03-06T00:26:39;9.60;99.90
6988;DHT22;3534;49.960;8.018;2024-03-06T00:29:08;9.60;99.90
6988;DHT22;3534;49.960;8.018;2024-03-06T00:31:35;9.60;99.90
6988;DHT22;3534;49.960;8.018;2024-03-06T00:34:01;9.60;99.90
6988;DHT22;3534;49.960;8.018;2024-03-06T00:36:28;9.60;99.90
6988;DHT22;3534;49.960;8.018;2024-03-06T00:38:55;9.60;99.90
6988;DHT22;3534;49.960;8.018;2024-03-06T00:41:22;9.60;99.90
6988;DHT22;3534;49.960;8.018;2024-03-06T00:43:48;9.60;99.90
6988;DHT22;3534;49.960;8.018;2024-03-06T00:46:17;9.60;99.90
6988;DHT22;3534;49.960;8.018;2024-03-06T00:48:43;9.60;99.90
6988;DHT22;3534;49.960;8.018;2024-03-06T00:51:10;9.60;99.90
6988;DHT22;3534;49.960;8.018;2024-03-06T00:53:36;9.50;99.90
6988;DHT22;3534;49.960;8.018;2024-03-06T00:56:04;9.50;99.90
6988;DHT22;3534;49.960;8.018;2024-03-06T00:58:30;9.50;99.90
6988;DHT22;3534;49.960;8.018;2024-03-06T01:00:57;9.40;99.90
6988;DHT22;3534;49.960;8.018;2024-03-06T01:03:25;9.40;99.90
6988;DHT22;3534;49.960;8.018;2024-03-06T01:05:51;9.40;99.90
6988;DHT22;3534;49.960;8.018;2024-03-06T01:08:18;9.40;99.90
6988;DHT22;3534;49.960;8.018;2024-03-06T01:10:45;9.40;99.90
6988;DHT22;3534;49.960;8.018;2024-03-06T01:13:12;9.40;99.90
6988;DHT22;3534;49.960;8.018;2024-03-06T01:15:38;9.30;99.90
6988;DHT22;3534;49.960;8.018;2024-03-06T01:18:05;9.30;99.90
6988;DHT22;3534;49.960;8.018;2024-03-06T01:20:33;9.30;99.90
6988;DHT22;3534;49.960;8.018;2024-03-06T01:23:00;9.20;99.90
6988;DHT22;3534;49.960;8.018;2024-03-06T01:25:26;9.10;99.90
6988;DHT22;3534;49.960;8.018;2024-03-06T01:27:53;9.00;99.90
6988;DHT22;3534;49.960;8.018;2024-03-06T01:30:20;9.00;99.90
6988;DHT22;3534;49.960;8.018;2024-03-06T01:32:46;8.80;99.90
6988;DHT22;3534;49.960;8.018;2024-03-06T01:35:13;8.80;99.90
6988;DHT22;3534;49.960;8.018;2024-03-06T01:37:41;8.70;99.90
6988;DHT22;3534;49.960;8.018;2024-03-06T01:40:09;8.70;99.90
6988;DHT22;3534;49.960;8.018;2024-03-06T01:42:36;8.70;99.90
6988;DHT22;3534;49.960;8.018;2024-03-06T01:45:03;8.70;99.90
6988;DHT22;3534;49.960;8.018;2024-03-06T01:47:30;8.70;99.90
6988;DHT22;3534;49.960;8.018;2024-03-06T01:49:57;8.60;99.90
6988;DHT22;3534;49.960;8.018;2024-03-06T01:52:24;8.70;99.90
6988;DHT22;3534;49.960;8.018;2024-03-06T01:54:52;8.70;99.90
6988;DHT22;3534;49.960;8.018;2024-03-06T01:57:19;8.70;99.90
6988;DHT22;3534;49.960;8.018;2024-03-06T01:59:46;8.80;99.90
6988;DHT22;3534;49.960;8.018;2024-03-06T02:02:14;8.80;99.90
6988;DHT22;3534;49.960;8.018;2024-03-06T02:04:41;8.90;99.90
6988;DHT22;3534;49.960;8.018;2024-03-06T02:07:09;8.90;99.90
6988;DHT22;3534;49.960;8.018;2024-03-06T02:09:36;8.90;99.90
6988;DHT22;3534;49.960;8.018;2024-03-06T02:12:05;8.90;99.90
6988;DHT22;3534;49.960;8.018;2024-03-06T02:14:33;8.90;99.90
6988;DHT22;3534;49.960;8.018;2024-03-06T02:17:00;9.00;99.90
6988;DHT22;3534;49.960;8.018;2024-03-06T02:19:37;9.00;99.90
6988;DHT22;3534;49.960;8.018;2024-03-06T02:22:06;9.00;99.90
6988;DHT22;3534;49.960;8.018;2024-03-06T02:24:33;9.10;99.90
6988;DHT22;3534;49.960;8.018;2024-03-06T02:26:59;9.10;99.90
6988;DHT22;3534;49.960;8.018;2024-03-06T02:29:31;9.10;99.90
6988;DHT22;3534;49.960;8.018;2024-03-06T02:31:57;9.10;99.90
6988;DHT22;3534;49.960;8.018;2024-03-06T02:34:24;9.10;99.90
6988;DHT22;3534;49.960;8.018;2024-03-06T02:36:51;9.10;99.90
6988;DHT22;3534;49.960;8.018;2024-03-06T02:39:19;9.10;99.90
6988;DHT22;3534;49.960;8.018;2024-03-06T02:41:46;9.10;99.90
6988;DHT22;3534;49.960;8.018;2024-03-06T02:44:14;9.00;99.90
6988;DHT22;3534;49.960;8.018;2024-03-06T02:46:41;8.90;99.90
6988;DHT22;3534;49.960;8.018;2024-03-06T02:49:08;8.70;99.90
6988;DHT22;3534;49.960;8.018;2024-03-06T02:51:34;8.60;99.90
6988;DHT22;3534;49.960;8.018;2024-03-06T02:54:02;8.60;99.90
6988;DHT22;3534;49.960;8.018;2024-03-06T02:56:31;8.50;99.90
6988;DHT22;3534;49.960;8.018;2024-03-06T02:58:57;8.60;99.90
6988;DHT22;3534;49.960;8.018;2024-03-06T03:01:24;8.60;99.90
6988;DHT22;3534;49.960;8.018;2024-03-06T03:03:51;8.60;99.90
6988;DHT22;3534;49.960;8.018;2024-03-06T03:06:17;8.60;99.90
6988;DHT22;3534;49.960;8.018;2024-03-06T03:08:44;8.60;99.90
6988;DHT22;3534;49.960;8.018;2024-03-06T03:11:11;8.70;99.90
6988;DHT22;3534;49.960;8.018;2024-03-06T03:13:39;8.70;99.90
6988;DHT22;3534;49.960;8.018;2024-03-06T03:16:06;8.70;99.90
6988;DHT22;3534;49.960;8.018;2024-03-06T03:18:32;8.80;99.90
6988;DHT22;3534;49.960;8.018;2024-03-06T03:20:59;8.80;99.90
6988;DHT22;3534;49.960;8.018;2024-03-06T03:23:27;8.80;99.90
6988;DHT22;3534;49.960;8.018;2024-03-06T03:25:54;8.90;99.90
6988;DHT22;3534;49.960;8.018;2024-03-06T03:28:20;8.90;99.90
6988;DHT22;3534;49.960;8.018;2024-03-06T03:30:48;8.90;99.90
6988;DHT22;3534;49.960;8.018;2024-03-06T03:33:15;8.90;99.90
6988;DHT22;3534;49.960;8.018;2024-03-06T03:35:42;8.80;99.90
6988;DHT22;3534;49.960;8.018;2024-03-06T03:38:08;8.80;99.90
6988;DHT22;3534;49.960;8.018;2024-03-06T03:40:35;8.80;99.90
6988;DHT22;3534;49.960;8.018;2024-03-06T03:43:02;8.80;99.90
6988;DHT22;3534;49.960;8.018;2024-03-06T03:45:32;8.80;99.90
6988;DHT22;3534;49.960;8.018;2024-03-06T03:48:01;8.70;99.90
6988;DHT22;3534;49.960;8.018;2024-03-06T03:50:29;8.70;99.90
6988;DHT22;3534;49.960;8.018;2024-03-06T03:52:55;8.60;99.90
6988;DHT22;3534;49.960;8.018;2024-03-06T03:55:23;8.60;99.90
6988;DHT22;3534;49.960;8.018;2024-03-06T03:57:50;8.50;99.90
6988;DHT22;3534;49.960;8.018;2024-03-06T04:00:18;8.50;99.90
6988;DHT22;3534;49.960;8.018;2024-03-06T04:02:45;8.50;99.90
6988;DHT22;3534;49.960;8.018;2024-03-06T04:05:13;8.50;99.90
6988;DHT22;3534;49.960;8.018;2024-03-06T04:07:40;8.50;99.90
6988;DHT22;3534;49.960;8.018;2024-03-06T04:10:07;8.60;99.90
6988;DHT22;3534;49.960;8.018;2024-03-06T04:12:36;8.60;99.90
6988;DHT22;3534;49.960;8.018;2024-03-06T04:15:04;8.60;99.90
6988;DHT22;3534;49.960;8.018;2024-03-06T04:17:31;8.60;99.90
6988;DHT22;3534;49.960;8.018;2024-03-06T04:19:57;8.60;99.90
6988;DHT22;3534;49.960;8.018;2024-03-06T04:22:25;8.60;99.90
6988;DHT22;3534;49.960;8.018;2024-03-06T04:24:52;8.60;99.90
6988;DHT22;3534;49.960;8.018;2024-03-06T04:27:20;8.60;99.90
6988;DHT22;3534;49.960;8.018;2024-03-06T04:29:47;8.70;99.90
6988;DHT22;3534;49.960;8.018;2024-03-06T04:32:13;8.60;99.90
6988;DHT22;3534;49.960;8.018;2024-03-06T04:34:40;8.60;99.90
6988;DHT22;3534;49.960;8.018;2024-03-06T04:37:07;8.60;99.90
6988;DHT22;3534;49.960;8.018;2024-03-06T04:39:35;8.50;99.90
6988;DHT22;3534;49.960;8.018;2024-03-06T04:42:01;8.40;99.90
6988;DHT22;3534;49.960;8.018;2024-03-06T04:44:28;8.40;99.90
6988;DHT22;3534;49.960;8.018;2024-03-06T04:46:55;8.40;99.90
6988;DHT22;3534;49.960;8.018;2024-03-06T04:49:21;8.50;99.90
6988;DHT22;3534;49.960;8.018;2024-03-06T04:51:48;8.40;99.90
6988;DHT22;3534;49.960;8.018;2024-03-06T04:54:15;8.40;99.90
6988;DHT22;3534;49.960;8.018;2024-03-06T04:56:43;8.40;99.90
6988;DHT22;3534;49.960;8.018;2024-03-06T04:59:10;8.50;99.90
6988;DHT22;3534;49.960;8.018;2024-03-06T05:01:36;8.50;99.90
6988;DHT22;3534;49.960;8.018;2024-03-06T05:04:03;8.50;99.90
6988;DHT22;3534;49.960;8.018;2024-03-06T05:06:30;8.50;99.90
6988;DHT22;3534;49.960;8.018;2024-03-06T05:08:56;8.60;99.90
6988;DHT22;3534;49.960;8.018;2024-03-06T05:11:23;8.60;99.90
6988;DHT22;3534;49.960;8.018;2024-03-06T05:13:51;8.60;99.90
6988;DHT22;3534;49.960;8.018;2024-03-06T05:16:18;8.50;99.90
6988;DHT22;3534;49.960;8.018;2024-03-06T05:18:44;8.50;99.90
6988;DHT22;3534;49.960;8.018;2024-03-06T05:21:11;8.50;99.90
6988;DHT22;3534;49.960;8.018;2024-03-06T05:23:38;8.50;99.90
6988;DHT22;3534;49.960;8.018;2024-03-06T05:26:04;8.50;99.90
6988;DHT22;3534;49.960;8.018;2024-03-06T05:28:31;8.40;99.90
6988;DHT22;3534;49.960;8.018;2024-03-06T05:30:59;8.40;99.90
6988;DHT22;3534;49.960;8.018;2024-03-06T05:33:27;8.40;99.90
6988;DHT22;3534;49.960;8.018;2024-03-06T05:35:55;8.40;99.90
6988;DHT22;3534;49.960;8.018;2024-03-06T05:38:22;8.40;99.90
6988;DHT22;3534;49.960;8.018;2024-03-06T05:40:48;8.40;99.90
6988;DHT22;3534;49.960;8.018;2024-03-06T05:43:15;8.40;99.90
6988;DHT22;3534;49.960;8.018;2024-03-06T05:45:42;8.40;99.90
6988;DHT22;3534;49.960;8.018;2024-03-06T05:48:10;8.40;99.90
6988;DHT22;3534;49.960;8.018;2024-03-06T05:50:36;8.40;99.90
6988;DHT22;3534;49.960;8.018;2024-03-06T05:53:04;8.40;99.90
6988;DHT22;3534;49.960;8.018;2024-03-06T05:55:31;8.30;99.90
6988;DHT22;3534;49.960;8.018;2024-03-06T05:57:57;8.40;99.90
6988;DHT22;3534;49.960;8.018;2024-03-06T06:00:25;8.30;99.90
6988;DHT22;3534;49.960;8.018;2024-03-06T06:02:51;8.30;99.90
6988;DHT22;3534;49.960;8.018;2024-03-06T06:05:19;8.30;99.90
6988;DHT22;3534;49.960;8.018;2024-03-06T06:07:48;8.30;99.90
6988;DHT22;3534;49.960;8.018;2024-03-06T06:10:15;8.30;99.90
6988;DHT22;3534;49.960;8.018;2024-03-06T06:12:42;8.30;99.90
6988;DHT22;3534;49.960;8.018;2024-03-06T06:15:09;8.30;99.90
6988;DHT22;3534;49.960;8.018;2024-03-06T06:17:36;8.20;99.90
6988;DHT22;3534;49.960;8.018;2024-03-06T06:20:06;8.10;99.90
6988;DHT22;3534;49.960;8.018;2024-03-06T06:22:36;8.00;99.90
6988;DHT22;3534;49.960;8.018;2024-03-06T06:25:03;8.00;99.90
6988;DHT22;3534;49.960;8.018;2024-03-06T06:27:30;8.00;99.90
6988;DHT22;3534;49.960;8.018;2024-03-06T06:29:57;7.90;99.90
6988;DHT22;3534;49.960;8.018;2024-03-06T06:32:24;7.90;99.90
6988;DHT22;3534;49.960;8.018;2024-03-06T06:34:51;7.90;99.90
6988;DHT22;3534;49.960;8.018;2024-03-06T06:37:18;7.90;99.90
6988;DHT22;3534;49.960;8.018;2024-03-06T06:39:46;8.00;99.90
6988;DHT22;3534;49.960;8.018;2024-03-06T06:42:13;8.00;99.90
6988;DHT22;3534;49.960;8.018;2024-03-06T06:44:40;8.00;99.90
6988;DHT22;3534;49.960;8.018;2024-03-06T06:47:07;8.10;99.90
6988;DHT22;3534;49.960;8.018;2024-03-06T06:49:34;8.10;99.90
6988;DHT22;3534;49.960;8.018;2024-03-06T06:52:00;8.10;99.90
6988;DHT22;3534;49.960;8.018;2024-03-06T06:54:27;8.00;99.90
6988;DHT22;3534;49.960;8.018;2024-03-06T06:56:55;8.00;99.90
6988;DHT22;3534;49.960;8.018;2024-03-06T06:59:21;8.00;99.90
6988;DHT22;3534;49.960;8.018;2024-03-06T07:01:48;8.10;99.90
6988;DHT22;3534;49.960;8.018;2024-03-06T07:04:15;8.10;99.90
6988;DHT22;3534;49.960;8.018;2024-03-06T07:06:45;8.00;99.90
6988;DHT22;3534;49.960;8.018;2024-03-06T07:09:12;8.00;99.90
6988;DHT22;3534;49.960;8.018;2024-03-06T07:11:40;8.10;99.90
6988;DHT22;3534;49.960;8.018;2024-03-06T07:14:09;8.00;99.90
6988;DHT22;3534;49.960;8.018;2024-03-06T07:16:41;8.10;99.90
6988;DHT22;3534;49.960;8.018;2024-03-06T07:19:08;8.00;99.90
6988;DHT22;3534;49.960;8.018;2024-03-06T07:21:35;8.00;99.90
6988;DHT22;3534;49.960;8.018;2024-03-06T07:24:01;8.00;99.90
6988;DHT22;3534;49.960;8.018;2024-03-06T07:26:28;8.00;99.90
6988;DHT22;3534;49.960;8.018;2024-03-06T07:28:55;8.00;99.90
6988;DHT22;3534;49.960;8.018;2024-03-06T07:31:24;8.00;99.90
6988;DHT22;3534;49.960;8.018;2024-03-06T07:33:51;8.00;99.90
6988;DHT22;3534;49.960;8.018;2024-03-06T07:36:18;8.00;99.90
6988;DHT22;3534;49.960;8.018;2024-03-06T07:38:45;8.00;99.90
6988;DHT22;3534;49.960;8.018;2024-03-06T07:41:12;8.00;99.90
6988;DHT22;3534;49.960;8.018;2024-03-06T07:43:39;8.00;99.90
6988;DHT22;3534;49.960;8.018;2024-03-06T07:46:05;8.00;99.90
6988;DHT22;3534;49.960;8.018;2024-03-06T07:48:37;8.10;99.90
6988;DHT22;3534;49.960;8.018;2024-03-06T07:51:04;8.10;99.90
6988;DHT22;3534;49.960;8.018;2024-03-06T07:53:31;8.20;99.90
6988;DHT22;3534;49.960;8.018;2024-03-06T07:55:57;8.20;99.90
6988;DHT22;3534;49.960;8.018;2024-03-06T07:58:24;8.30;99.90
6988;DHT22;3534;49.960;8.018;2024-03-06T08:00:52;8.30;99.90
6988;DHT22;3534;49.960;8.018;2024-03-06T08:03:21;8.40;99.90
6988;DHT22;3534;49.960;8.018;2024-03-06T08:05:51;8.40;99.90
6988;DHT22;3534;49.960;8.018;2024-03-06T08:08:17;8.40;99.90
6988;DHT22;3534;49.960;8.018;2024-03-06T08:10:44;8.40;99.90
6988;DHT22;3534;49.960;8.018;2024-03-06T08:13:11;8.50;99.90
6988;DHT22;3534;49.960;8.018;2024-03-06T08:15:38;8.50;99.90
6988;DHT22;3534;49.960;8.018;2024-03-06T08:18:06;8.60;99.90
6988;DHT22;3534;49.960;8.018;2024-03-06T08:20:32;8.60;99.90
6988;DHT22;3534;49.960;8.018;2024-03-06T08:23:00;8.70;99.90
6988;DHT22;3534;49.960;8.018;2024-03-06T08:25:27;8.70;99.90
6988;DHT22;3534;49.960;8.018;2024-03-06T08:27:54;8.70;99.90
6988;DHT22;3534;49.960;8.018;2024-03-06T08:30:20;8.70;99.90
6988;DHT22;3534;49.960;8.018;2024-03-06T08:32:47;8.70;99.90
6988;DHT22;3534;49.960;8.018;2024-03-06T08:35:15;8.80;99.90
6988;DHT22;3534;49.960;8.018;2024-03-06T08:37:44;8.80;99.90
6988;DHT22;3534;49.960;8.018;2024-03-06T08:40:12;8.80;99.90
6988;DHT22;3534;49.960;8.018;2024-03-06T08:42:40;8.80;99.90
6988;DHT22;3534;49.960;8.018;2024-03-06T08:45:08;8.80;99.90
6988;DHT22;3534;49.960;8.018;2024-03-06T08:47:35;8.90;99.90
6988;DHT22;3534;49.960;8.018;2024-03-06T08:50:01;8.90;99.90
6988;DHT22;3534;49.960;8.018;2024-03-06T08:52:28;8.90;99.90
6988;DHT22;3534;49.960;8.018;2024-03-06T08:54:56;8.90;99.90
6988;DHT22;3534;49.960;8.018;2024-03-06T08:57:24;8.90;99.90
6988;DHT22;3534;49.960;8.018;2024-03-06T08:59:53;8.90;99.90
6988;DHT22;3534;49.960;8.018;2024-03-06T09:02:20;9.00;99.90
6988;DHT22;3534;49.960;8.018;2024-03-06T09:04:47;9.10;99.90
6988;DHT22;3534;49.960;8.018;2024-03-06T09:07:14;9.10;99.90
6988;DHT22;3534;49.960;8.018;2024-03-06T09:09:41;9.10;99.90
6988;DHT22;3534;49.960;8.018;2024-03-06T09:12:09;9.20;99.90
6988;DHT22;3534;49.960;8.018;2024-03-06T09:14:38;9.20;99.90
6988;DHT22;3534;49.960;8.018;2024-03-06T09:17:06;9.30;99.90
6988;DHT22;3534;49.960;8.018;2024-03-06T09:19:35;9.30;99.90
6988;DHT22;3534;49.960;8.018;2024-03-06T09:22:02;9.30;99.90
6988;DHT22;3534;49.960;8.018;2024-03-06T09:24:29;9.30;99.90
6988;DHT22;3534;49.960;8.018;2024-03-06T09:26:56;9.30;99.90
6988;DHT22;3534;49.960;8.018;2024-03-06T09:29:23;9.30;99.90
6988;DHT22;3534;49.960;8.018;2024-03-06T09:31:51;9.40;99.90
6988;DHT22;3534;49.960;8.018;2024-03-06T09:34:18;9.40;99.90
6988;DHT22;3534;49.960;8.018;2024-03-06T09:36:47;9.50;99.90
6988;DHT22;3534;49.960;8.018;2024-03-06T09:39:14;9.60;99.90
6988;DHT22;3534;49.960;8.018;2024-03-06T09:41:43;9.70;99.90
6988;DHT22;3534;49.960;8.018;2024-03-06T09:44:10;9.70;99.90
6988;DHT22;3534;49.960;8.018;2024-03-06T09:46:36;9.80;99.90
6988;DHT22;3534;49.960;8.018;2024-03-06T09:49:05;9.80;99.90
6988;DHT22;3534;49.960;8.018;2024-03-06T09:51:34;9.90;99.90
6988;DHT22;3534;49.960;8.018;2024-03-06T09:54:02;10.00;99.90
6988;DHT22;3534;49.960;8.018;2024-03-06T09:56:29;10.00;99.90
6988;DHT22;3534;49.960;8.018;2024-03-06T09:58:56;10.10;99.90
6988;DHT22;3534;49.960;8.018;2024-03-06T10:01:23;10.20;99.90
6988;DHT22;3534;49.960;8.018;2024-03-06T10:03:50;10.30;99.90
6988;DHT22;3534;49.960;8.018;2024-03-06T10:06:18;10.30;99.90
6988;DHT22;3534;49.960;8.018;2024-03-06T10:08:46;10.40;99.90
6988;DHT22;3534;49.960;8.018;2024-03-06T10:11:12;10.50;99.90
6988;DHT22;3534;49.960;8.018;2024-03-06T10:13:39;10.50;99.90
6988;DHT22;3534;49.960;8.018;2024-03-06T10:16:06;10.50;99.90
6988;DHT22;3534;49.960;8.018;2024-03-06T10:18:35;10.50;99.90
6988;DHT22;3534;49.960;8.018;2024-03-06T10:21:04;10.60;99.90
6988;DHT22;3534;49.960;8.018;2024-03-06T10:23:32;10.70;99.90
6988;DHT22;3534;49.960;8.018;2024-03-06T10:26:00;10.70;99.90
6988;DHT22;3534;49.960;8.018;2024-03-06T10:28:27;10.80;99.90
6988;DHT22;3534;49.960;8.018;2024-03-06T10:31:03;10.90;99.90
6988;DHT22;3534;49.960;8.018;2024-03-06T10:33:31;10.90;99.90
6988;DHT22;3534;49.960;8.018;2024-03-06T10:35:59;11.00;99.90
6988;DHT22;3534;49.960;8.018;2024-03-06T10:38:27;11.10;99.90
6988;DHT22;3534;49.960;8.018;2024-03-06T10:41:00;11.20;99.90
6988;DHT22;3534;49.960;8.018;2024-03-06T10:43:28;11.30;99.90
6988;DHT22;3534;49.960;8.018;2024-03-06T10:46:00;11.40;99.90
6988;DHT22;3534;49.960;8.018;2024-03-06T10:48:29;11.50;99.90
6988;DHT22;3534;49.960;8.018;2024-03-06T10:50:57;11.60;99.90
6988;DHT22;3534;49.960;8.018;2024-03-06T10:53:26;11.60;99.90
6988;DHT22;3534;49.960;8.018;2024-03-06T10:55:53;11.70;99.90
6988;DHT22;3534;49.960;8.018;2024-03-06T10:58:22;11.80;99.90
6988;DHT22;3534;49.960;8.018;2024-03-06T11:00:51;11.80;99.90
6988;DHT22;3534;49.960;8.018;2024-03-06T11:03:18;12.00;99.90
6988;DHT22;3534;49.960;8.018;2024-03-06T11:05:45;12.10;99.90
6988;DHT22;3534;49.960;8.018;2024-03-06T11:08:16;12.20;99.90
6988;DHT22;3534;49.960;8.018;2024-03-06T11:10:43;12.30;99.90
6988;DHT22;3534;49.960;8.018;2024-03-06T11:13:23;12.40;99.90
6988;DHT22;3534;49.960;8.018;2024-03-06T11:15:52;12.50;99.90
6988;DHT22;3534;49.960;8.018;2024-03-06T11:18:40;12.60;99.90
6988;DHT22;3534;49.960;8.018;2024-03-06T11:21:28;12.70;99.90
6988;DHT22;3534;49.960;8.018;2024-03-06T11:24:23;12.90;99.90
6988;DHT22;3534;49.960;8.018;2024-03-06T11:26:57;13.10;99.90
6988;DHT22;3534;49.960;8.018;2024-03-06T11:29:28;13.40;99.90
6988;DHT22;3534;49.960;8.018;2024-03-06T11:32:00;13.60;99.90
6988;DHT22;3534;49.960;8.018;2024-03-06T11:34:26;13.80;99.90
6988;DHT22;3534;49.960;8.018;2024-03-06T11:36:55;13.80;99.90
6988;DHT22;3534;49.960;8.018;2024-03-06T11:39:22;14.00;99.90
6988;DHT22;3534;49.960;8.018;2024-03-06T11:41:50;14.10;99.90
6988;DHT22;3534;49.960;8.018;2024-03-06T11:44:18;14.30;99.90
6988;DHT22;3534;49.960;8.018;2024-03-06T11:46:48;14.40;99.90
6988;DHT22;3534;49.960;8.018;2024-03-06T11:49:16;14.40;99.90
6988;DHT22;3534;49.960;8.018;2024-03-06T11:51:44;14.40;99.90
6988;DHT22;3534;49.960;8.018;2024-03-06T11:54:11;14.40;99.90
6988;DHT22;3534;49.960;8.018;2024-03-06T11:56:39;14.50;99.90
6988;DHT22;3534;49.960;8.018;2024-03-06T11:59:06;14.50;99.90
6988;DHT22;3534;49.960;8.018;2024-03-06T12:01:33;14.50;99.90
6988;DHT22;3534;49.960;8.018;2024-03-06T12:04:00;14.50;99.90
6988;DHT22;3534;49.960;8.018;2024-03-06T12:06:27;14.50;99.90
6988;DHT22;3534;49.960;8.018;2024-03-06T12:08:58;14.40;99.90
6988;DHT22;3534;49.960;8.018;2024-03-06T12:11:25;14.40;99.90
6988;DHT22;3534;49.960;8.018;2024-03-06T12:13:54;14.50;99.90
6988;DHT22;3534;49.960;8.018;2024-03-06T12:16:21;14.50;99.90
6988;DHT22;3534;49.960;8.018;2024-03-06T12:18:54;14.60;99.90
6988;DHT22;3534;49.960;8.018;2024-03-06T12:21:27;14.60;99.90
6988;DHT22;3534;49.960;8.018;2024-03-06T12:24:02;14.50;99.90
6988;DHT22;3534;49.960;8.018;2024-03-06T12:26:29;14.40;99.90
6988;DHT22;3534;49.960;8.018;2024-03-06T12:29:04;14.30;99.90
6988;DHT22;3534;49.960;8.018;2024-03-06T12:31:31;14.30;99.90
6988;DHT22;3534;49.960;8.018;2024-03-06T12:33:59;14.30;99.90
6988;DHT22;3534;49.960;8.018;2024-03-06T12:36:30;14.40;99.90
6988;DHT22;3534;49.960;8.018;2024-03-06T12:38:59;14.60;99.90
6988;DHT22;3534;49.960;8.018;2024-03-06T12:41:26;14.80;99.90
6988;DHT22;3534;49.960;8.018;2024-03-06T12:43:54;15.00;99.90
6988;DHT22;3534;49.960;8.018;2024-03-06T12:46:22;15.20;99.90
6988;DHT22;3534;49.960;8.018;2024-03-06T12:48:49;15.20;99.90
6988;DHT22;3534;49.960;8.018;2024-03-06T12:51:16;15.20;99.90
6988;DHT22;3534;49.960;8.018;2024-03-06T12:53:44;15.20;99.90
6988;DHT22;3534;49.960;8.018;2024-03-06T12:56:11;15.20;99.90
6988;DHT22;3534;49.960;8.018;2024-03-06T12:58:37;15.20;99.90
6988;DHT22;3534;49.960;8.018;2024-03-06T13:01:04;15.10;99.90
6988;DHT22;3534;49.960;8.018;2024-03-06T13:03:31;15.10;99.90
6988;DHT22;3534;49.960;8.018;2024-03-06T13:05:58;15.10;99.90
6988;DHT22;3534;49.960;8.018;2024-03-06T13:08:25;15.10;99.90
6988;DHT22;3534;49.960;8.018;2024-03-06T13:10:53;15.00;99.90
6988;DHT22;3534;49.960;8.018;2024-03-06T13:13:21;14.90;99.90
6988;DHT22;3534;49.960;8.018;2024-03-06T13:15:49;14.90;99.90
6988;DHT22;3534;49.960;8.018;2024-03-06T13:18:16;14.80;99.90
6988;DHT22;3534;49.960;8.018;2024-03-06T13:20:42;14.80;99.90
6988;DHT22;3534;49.960;8.018;2024-03-06T13:23:10;14.80;99.90
6988;DHT22;3534;49.960;8.018;2024-03-06T13:25:36;14.70;99.90
6988;DHT22;3534;49.960;8.018;2024-03-06T13:28:05;14.70;99.90
6988;DHT22;3534;49.960;8.018;2024-03-06T13:30:32;14.70;99.90
6988;DHT22;3534;49.960;8.018;2024-03-06T13:32:58;14.70;99.90
6988;DHT22;3534;49.960;8.018;2024-03-06T13:35:25;14.70;99.90
6988;DHT22;3534;49.960;8.018;2024-03-06T13:37:52;14.70;99.90
6988;DHT22;3534;49.960;8.018;2024-03-06T13:40:19;14.60;99.90
6988;DHT22;3534;49.960;8.018;2024-03-06T13:42:46;14.60;99.90
6988;DHT22;3534;49.960;8.018;2024-03-06T13:45:14;14.70;99.90
6988;DHT22;3534;49.960;8.018;2024-03-06T13:47:41;14.70;99.90
6988;DHT22;3534;49.960;8.018;2024-03-06T13:50:09;14.70;99.90
6988;DHT22;3534;49.960;8.018;2024-03-06T13:52:36;14.60;99.90
6988;DHT22;3534;49.960;8.018;2024-03-06T13:55:03;14.60;99.90
6988;DHT22;3534;49.960;8.018;2024-03-06T13:57:31;14.70;99.90
6988;DHT22;3534;49.960;8.018;2024-03-06T13:59:59;14.70;99.90
6988;DHT22;3534;49.960;8.018;2024-03-06T14:02:27;14.70;99.90
6988;DHT22;3534;49.960;8.018;2024-03-06T14:04:53;14.70;99.90
6988;DHT22;3534;49.960;8.018;2024-03-06T14:07:20;14.70;99.90
6988;DHT22;3534;49.960;8.018;2024-03-06T14:09:47;14.70;99.90
6988;DHT22;3534;49.960;8.018;2024-03-06T14:12:14;14.70;99.90
6988;DHT22;3534;49.960;8.018;2024-03-06T14:14:40;14.70;99.90
6988;DHT22;3534;49.960;8.018;2024-03-06T14:17:07;14.60;99.90
6988;DHT22;3534;49.960;8.018;2024-03-06T14:19:35;14.60;99.90
6988;DHT22;3534;49.960;8.018;2024-03-06T14:22:02;14.50;99.90
6988;DHT22;3534;49.960;8.018;2024-03-06T14:24:29;14.50;99.90
6988;DHT22;3534;49.960;8.018;2024-03-06T14:26:55;14.50;99.90
6988;DHT22;3534;49.960;8.018;2024-03-06T14:29:22;14.50;99.90
6988;DHT22;3534;49.960;8.018;2024-03-06T14:31:48;14.50;99.90
6988;DHT22;3534;49.960;8.018;2024-03-06T14:34:15;14.50;99.90
6988;DHT22;3534;49.960;8.018;2024-03-06T14:36:43;14.50;99.90
6988;DHT22;3534;49.960;8.018;2024-03-06T14:39:10;14.50;99.90
6988;DHT22;3534;49.960;8.018;2024-03-06T14:41:38;14.50;99.90
6988;DHT22;3534;49.960;8.018;2024-03-06T14:44:07;14.40;99.90
6988;DHT22;3534;49.960;8.018;2024-03-06T14:46:34;14.40;99.90
6988;DHT22;3534;49.960;8.018;2024-03-06T14:49:01;14.40;99.90
6988;DHT22;3534;49.960;8.018;2024-03-06T14:51:28;14.40;99.90
6988;DHT22;3534;49.960;8.018;2024-03-06T14:53:56;14.40;99.90
6988;DHT22;3534;49.960;8.018;2024-03-06T14:56:23;14.40;99.90
6988;DHT22;3534;49.960;8.018;2024-03-06T14:58:49;14.40;99.90
6988;DHT22;3534;49.960;8.018;2024-03-06T15:01:17;14.40;99.90
6988;DHT22;3534;49.960;8.018;2024-03-06T15:03:43;14.40;99.90
6988;DHT22;3534;49.960;8.018;2024-03-06T15:06:11;14.40;99.90
6988;DHT22;3534;49.960;8.018;2024-03-06T15:08:38;14.40;99.90
6988;DHT22;3534;49.960;8.018;2024-03-06T15:11:06;14.40;99.90
6988;DHT22;3534;49.960;8.018;2024-03-06T15:13:33;14.40;99.90
6988;DHT22;3534;49.960;8.018;2024-03-06T15:16:00;14.40;99.90
6988;DHT22;3534;49.960;8.018;2024-03-06T15:18:29;14.40;99.90
6988;DHT22;3534;49.960;8.018;2024-03-06T15:20:56;14.50;99.90
6988;DHT22;3534;49.960;8.018;2024-03-06T15:23:23;14.50;99.90
6988;DHT22;3534;49.960;8.018;2024-03-06T15:25:49;14.50;99.90
6988;DHT22;3534;49.960;8.018;2024-03-06T15:28:17;14.50;99.90
6988;DHT22;3534;49.960;8.018;2024-03-06T15:30:44;14.50;99.90
6988;DHT22;3534;49.960;8.018;2024-03-06T15:33:10;14.50;99.90
6988;DHT22;3534;49.960;8.018;2024-03-06T15:35:37;14.50;99.90
6988;DHT22;3534;49.960;8.018;2024-03-06T15:38:04;14.40;99.90
6988;DHT22;3534;49.960;8.018;2024-03-06T15:40:31;14.50;99.90
6988;DHT22;3534;49.960;8.018;2024-03-06T15:42:57;14.40;99.90
6988;DHT22;3534;49.960;8.018;2024-03-06T15:45:25;14.40;99.90
6988;DHT22;3534;49.960;8.018;2024-03-06T15:47:52;14.40;99.90
6988;DHT22;3534;49.960;8.018;2024-03-06T15:50:18;14.40;99.90
6988;DHT22;3534;49.960;8.018;2024-03-06T15:52:45;14.40;99.90
6988;DHT22;3534;49.960;8.018;2024-03-06T15:55:12;14.40;99.90
6988;DHT22;3534;49.960;8.018;2024-03-06T15:57:39;14.30;99.90
6988;DHT22;3534;49.960;8.018;2024-03-06T16:00:07;14.30;99.90
6988;DHT22;3534;49.960;8.018;2024-03-06T16:02:40;14.30;99.90
6988;DHT22;3534;49.960;8.018;2024-03-06T16:05:07;14.30;99.90
6988;DHT22;3534;49.960;8.018;2024-03-06T16:07:34;14.30;99.90
6988;DHT22;3534;49.960;8.018;2024-03-06T16:10:01;14.20;99.90
6988;DHT22;3534;49.960;8.018;2024-03-06T16:12:28;14.20;99.90
6988;DHT22;3534;49.960;8.018;2024-03-06T16:14:54;14.20;99.90